Time;durP1;ratioP1;P1;durP2;ratioP2;P2;SDS_P1;SDS_P2;PMS_P1;PMS_P2;Temp;Humidity;BMP_temperature;BMP_pressure;BME280_temperature;BME280_humidity;BME280_pressure;Samples;Min_cycle;Max_cycle;Signal;HPM_P1;HPM_P2
2023/02/22 00:00:48;;;;;;;9.43;7.93;;;;;;;5.93;79.62;98873.47;5154792;27;43149;-80
2023/02/22 00:03:23;;;;;;;10.20;7.67;;;;;;;5.93;79.54;98878.72;5152306;27;39907;-80
2023/02/22 00:05:53;;;;;;;10.47;7.67;;;;;;;5.97;79.35;98891.63;5153533;27;42447;-80
2023/02/22 00:08:22;;;;;;;11.43;7.20;;;;;;;5.85;79.40;98865.00;5136956;27;42387;-80
2023/02/22 00:10:51;;;;;;;8.43;6.87;;;;;;;5.92;79.41;98883.13;5135461;27;40917;-80
2023/02/22 00:13:21;;;;;;;8.10;7.10;;;;;;;5.77;79.61;98862.72;5136021;27;39488;-80
2023/02/22 00:15:50;;;;;;;9.27;6.93;;;;;;;5.85;79.66;98879.00;5155283;27;41731;-80
2023/02/22 00:18:19;;;;;;;9.43;7.17;;;;;;;5.81;79.71;98869.53;5153892;27;43742;-80
2023/02/22 00:20:47;;;;;;;10.57;7.60;;;;;;;5.76;79.86;98872.38;5136175;27;43015;-80
2023/02/22 00:23:18;;;;;;;12.40;9.53;;;;;;;5.74;80.06;98873.34;5155195;27;40747;-80
2023/02/22 00:25:47;;;;;;;12.50;8.73;;;;;;;5.67;79.81;98872.78;5135992;27;41809;-80
2023/02/22 00:28:15;;;;;;;12.17;8.53;;;;;;;5.64;79.64;98878.16;5155025;27;42697;-80
2023/02/22 00:30:44;;;;;;;11.13;8.50;;;;;;;5.61;79.73;98877.41;5136456;27;40882;-80
2023/02/22 00:33:14;;;;;;;9.87;7.70;;;;;;;5.56;79.45;98874.16;5136724;27;40072;-80
2023/02/22 00:35:44;;;;;;;10.47;7.93;;;;;;;5.40;79.68;98850.28;5136336;27;41877;-80
2023/02/22 00:38:13;;;;;;;11.37;7.80;;;;;;;5.45;79.43;98865.84;5136453;27;44277;-80
2023/02/22 00:40:41;;;;;;;13.03;9.10;;;;;;;5.39;79.37;98867.81;5135978;27;42325;-80
2023/02/22 00:43:09;;;;;;;14.33;11.27;;;;;;;5.39;79.26;98866.97;5137001;27;39940;-80
2023/02/22 00:45:37;;;;;;;13.10;9.07;;;;;;;5.35;79.51;98866.22;5135647;27;40956;-80
2023/02/22 00:48:07;;;;;;;13.57;9.97;;;;;;;5.32;79.42;98871.59;5153949;27;42853;-80
2023/02/22 00:50:37;;;;;;;15.07;9.67;;;;;;;5.28;79.53;98859.53;5147971;27;41447;-80
2023/02/22 00:53:06;;;;;;;13.67;9.70;;;;;;;5.24;79.58;98863.19;5173363;27;40867;-81
2023/02/22 00:55:37;;;;;;;14.23;9.33;;;;;;;5.19;79.69;98859.06;5137227;27;40933;-80
2023/02/22 00:58:05;;;;;;;13.83;9.90;;;;;;;5.20;79.34;98856.34;5168957;27;43182;-80
2023/02/22 01:00:35;;;;;;;11.77;8.67;;;;;;;5.18;79.31;98859.97;5169831;27;42401;-81
2023/02/22 01:03:05;;;;;;;10.80;8.57;;;;;;;5.15;79.44;98858.31;5119334;27;39918;-80
2023/02/22 01:05:33;;;;;;;13.10;9.47;;;;;;;5.10;79.41;98849.75;5135748;27;42039;-80
2023/02/22 01:08:02;;;;;;;11.13;7.57;;;;;;;5.11;79.63;98855.88;5136250;27;43083;-80
2023/02/22 01:10:31;;;;;;;10.23;8.03;;;;;;;5.07;79.47;98855.13;5135479;27;42130;-79
2023/02/22 01:13:03;;;;;;;12.23;9.77;;;;;;;5.05;80.00;98860.47;5136161;27;40347;-80
2023/02/22 01:15:32;;;;;;;16.27;11.03;;;;;;;5.02;80.03;98868.47;5135462;27;41670;-80
2023/02/22 01:18:00;;;;;;;13.03;9.80;;;;;;;4.85;79.86;98833.28;5135900;27;43206;-80
2023/02/22 01:20:29;;;;;;;9.43;7.60;;;;;;;4.95;79.68;98858.25;5153068;27;42331;-80
2023/02/22 01:22:58;;;;;;;10.10;8.43;;;;;;;4.91;79.82;98856.69;5139826;27;40067;-80
2023/02/22 01:25:30;;;;;;;13.00;8.20;;;;;;;4.90;79.71;98862.84;5121961;27;42005;-81
2023/02/22 01:28:00;;;;;;;10.67;8.17;;;;;;;4.87;79.59;98855.06;5139948;27;43278;-80
2023/02/22 01:30:31;;;;;;;10.57;8.60;;;;;;;4.84;79.63;98852.56;5156604;27;42440;-80
2023/02/22 01:33:00;;;;;;;10.17;7.97;;;;;;;4.72;79.84;98832.91;5136457;27;40181;-80
2023/02/22 01:35:30;;;;;;;11.33;8.30;;;;;;;4.81;79.99;98852.72;5122157;27;40733;-80
2023/02/22 01:37:58;;;;;;;12.97;9.20;;;;;;;4.77;79.87;98848.50;5156911;27;42782;-80
2023/02/22 01:40:30;;;;;;;10.03;7.90;;;;;;;4.76;79.71;98854.66;5156229;27;42289;-80
2023/02/22 01:42:59;;;;;;;11.63;8.73;;;;;;;4.66;79.82;98839.28;5122080;27;38932;-80
2023/02/22 01:45:50;;;;;;;10.77;8.03;;;;;;;4.70;79.80;98837.38;5121915;27;40412;-79
2023/02/22 01:48:25;;;;;;;11.00;7.47;;;;;;;4.80;79.62;98846.59;5139182;27;42842;-80
2023/02/22 01:50:55;;;;;;;13.23;9.50;;;;;;;4.77;79.93;98824.88;5121791;27;41120;-80
2023/02/22 01:53:29;;;;;;;11.20;8.43;;;;;;;4.92;79.84;98843.50;5139144;27;40326;-80
2023/02/22 01:56:00;;;;;;;12.83;9.00;;;;;;;4.94;79.64;98835.56;5154770;27;42598;-79
2023/02/22 01:58:32;;;;;;;11.30;8.73;;;;;;;5.00;79.68;98835.31;5136172;27;42753;-80
2023/02/22 02:01:01;;;;;;;11.10;8.30;;;;;;;4.82;79.37;98801.94;5121289;27;41192;-80
2023/02/22 02:03:32;;;;;;;9.77;7.37;;;;;;;5.00;79.45;98828.28;5139362;27;39268;-80
2023/02/22 02:06:03;;;;;;;9.70;8.00;;;;;;;4.97;79.39;98828.41;5121504;27;40367;-79
2023/02/22 02:08:41;;;;;;;8.97;7.30;;;;;;;4.94;80.06;98822.44;5138877;27;42903;-80
2023/02/22 02:11:11;;;;;;;8.77;7.27;;;;;;;4.91;79.83;98820.78;5138677;27;42140;-80
2023/02/22 02:13:39;;;;;;;8.47;7.57;;;;;;;4.88;80.21;98820.06;5121484;27;38766;-80
2023/02/22 02:16:07;;;;;;;9.43;7.73;;;;;;;4.74;80.29;98801.38;5156945;27;41974;-80
2023/02/22 02:18:35;;;;;;;9.50;7.70;;;;;;;4.69;80.33;98791.94;5138460;27;41912;-80
2023/02/22 02:21:30;;;;;;;9.70;7.83;;;;;;;4.81;80.26;98821.22;5157112;27;42145;-80
2023/02/22 02:24:19;;;;;;;9.13;7.67;;;;;;;4.66;80.29;98797.31;5138933;27;38921;-80
2023/02/22 02:27:17;;;;;;;9.77;7.50;;;;;;;4.78;80.42;98816.09;5138033;27;40660;-80
2023/02/22 02:30:17;;;;;;;8.67;6.57;;;;;;;4.77;80.17;98815.25;5085757;27;42331;-80
2023/02/22 02:32:53;;;;;;;7.33;6.63;;;;;;;4.76;80.07;98812.69;5090701;27;41283;-80
2023/02/22 02:35:32;;;;;;;7.43;6.23;;;;;;;4.74;80.29;98804.00;5138242;27;38834;-79
2023/02/22 02:38:07;;;;;;;7.90;7.03;;;;;;;4.77;80.71;98801.28;5121477;27;41872;-79
2023/02/22 02:40:43;;;;;;;10.00;8.97;;;;;;;4.73;81.31;98794.44;5120507;27;41706;-80
2023/02/22 02:43:17;;;;;;;10.63;8.73;;;;;;;4.75;81.14;98803.94;5121371;27;41216;-80
2023/02/22 02:45:50;;;;;;;9.70;7.53;;;;;;;4.73;81.09;98795.28;5120747;27;38725;-80
2023/02/22 02:48:25;;;;;;;9.53;7.10;;;;;;;4.73;80.69;98789.19;5138488;27;40433;-80
2023/02/22 02:50:56;;;;;;;7.33;6.60;;;;;;;4.73;80.78;98797.06;5137952;27;41181;-80
2023/02/22 02:53:31;;;;;;;10.90;7.27;;;;;;;4.72;80.57;98796.19;5152720;27;42121;-80
2023/02/22 02:55:59;;;;;;;10.27;8.13;;;;;;;4.72;80.54;98797.97;5154038;27;40667;-80
2023/02/22 02:58:28;;;;;;;10.30;8.40;;;;;;;4.72;80.20;98792.72;5155475;27;41783;-80
2023/02/22 03:00:58;;;;;;;8.30;7.30;;;;;;;4.74;80.07;98786.50;5138092;27;42765;-80
2023/02/22 03:03:47;;;;;;;9.30;7.63;;;;;;;4.78;80.06;98790.72;5135116;27;43148;-80
2023/02/22 03:06:40;;;;;;;9.73;7.30;;;;;;;4.81;79.99;98784.50;5154233;27;40401;-80
2023/02/22 03:09:15;;;;;;;8.47;6.87;;;;;;;4.84;79.53;98776.47;5121029;27;40754;-80
2023/02/22 03:11:51;;;;;;;10.87;7.57;;;;;;;4.72;79.43;98754.22;5155790;27;42759;-80
2023/02/22 03:14:27;;;;;;;10.40;8.13;;;;;;;4.89;79.37;98771.91;5137762;27;42037;-80
2023/02/22 03:17:05;;;;;;;9.80;7.90;;;;;;;4.90;79.59;98773.63;5137542;27;38833;-80
2023/02/22 03:19:38;;;;;;;10.70;7.80;;;;;;;4.92;79.21;98771.78;5151908;27;41923;-80
2023/02/22 03:22:12;;;;;;;9.37;7.40;;;;;;;4.81;79.35;98747.78;5137993;27;42599;-80
2023/02/22 03:24:54;;;;;;;11.13;8.50;;;;;;;4.85;79.33;98749.34;5134083;27;42270;-80
2023/02/22 03:27:29;;;;;;;11.40;8.63;;;;;;;4.96;79.12;98765.47;5134612;27;40273;-80
2023/02/22 03:30:03;;;;;;;10.57;7.90;;;;;;;4.94;79.10;98762.94;5137250;27;41752;-80
2023/02/22 03:32:37;;;;;;;11.87;7.57;;;;;;;4.90;79.38;98747.38;5134714;27;42772;-80
2023/02/22 03:35:11;;;;;;;11.47;7.93;;;;;;;5.01;78.86;98760.91;5119841;27;41936;-80
2023/02/22 03:37:43;;;;;;;8.57;7.10;;;;;;;5.03;78.94;98761.72;5151874;27;40647;-80
2023/02/22 03:40:16;;;;;;;11.50;7.60;;;;;;;5.02;79.07;98752.97;5152121;27;42624;-80
2023/02/22 03:42:53;;;;;;;8.10;7.03;;;;;;;5.03;79.23;98754.69;5120389;27;41962;-80
2023/02/22 03:45:26;;;;;;;8.17;6.77;;;;;;;5.04;79.02;98755.53;5134876;27;42298;-80
2023/02/22 03:48:05;;;;;;;9.20;6.83;;;;;;;5.07;79.42;98761.50;5120079;27;38821;-80
2023/02/22 03:50:37;;;;;;;10.80;7.50;;;;;;;5.08;79.19;98754.47;5137601;27;40601;-80
2023/02/22 03:53:07;;;;;;;10.03;7.80;;;;;;;5.09;79.10;98748.31;5151678;27;43541;-80
2023/02/22 03:55:37;;;;;;;9.63;7.33;;;;;;;4.99;79.33;98736.50;5119413;27;41289;-80
2023/02/22 03:58:11;;;;;;;10.03;8.17;;;;;;;5.08;79.41;98751.84;5137654;27;39650;-80
2023/02/22 04:00:43;;;;;;;11.57;8.07;;;;;;;5.08;79.46;98746.59;5137306;27;40605;-80
2023/02/22 04:03:11;;;;;;;9.97;7.97;;;;;;;5.09;79.66;98753.56;5137270;27;42076;-80
2023/02/22 04:05:41;;;;;;;11.83;9.00;;;;;;;5.07;80.20;98748.38;5119618;27;42240;-80
2023/02/22 04:08:09;;;;;;;12.47;8.33;;;;;;;5.09;80.12;98748.31;5119892;27;39160;-80
2023/02/22 04:10:37;;;;;;;10.63;8.63;;;;;;;4.79;80.29;98695.38;5153634;27;41898;-79
2023/02/22 04:13:06;;;;;;;10.17;7.87;;;;;;;5.10;81.26;98731.66;5119448;27;43717;-80
2023/02/22 04:15:36;;;;;;;9.67;7.23;;;;;;;5.02;80.75;98725.88;5134724;27;42385;-80
2023/02/22 04:18:06;;;;;;;8.53;7.10;;;;;;;5.13;80.48;98744.66;5119895;27;41203;-80
2023/02/22 04:20:34;;;;;;;9.40;6.90;;;;;;;4.99;80.89;98710.25;5136295;27;41710;-80
2023/02/22 04:23:11;;;;;;;8.27;7.00;;;;;;;5.01;80.92;98719.78;5119268;27;42912;-80
2023/02/22 04:25:41;;;;;;;7.77;6.97;;;;;;;5.10;80.83;98729.03;5118584;27;41606;-80
2023/02/22 04:28:12;;;;;;;9.00;7.17;;;;;;;5.11;80.94;98729.88;5133218;27;40168;-80
2023/02/22 04:30:47;;;;;;;9.07;7.40;;;;;;;5.03;81.07;98717.09;5134467;27;41780;-80
2023/02/22 04:33:17;;;;;;;8.30;7.13;;;;;;;5.13;80.78;98723.66;5136216;27;42808;-80
2023/02/22 04:35:46;;;;;;;8.10;6.60;;;;;;;5.10;81.06;98723.78;5135926;27;42342;-80
2023/02/22 04:38:16;;;;;;;9.07;7.47;;;;;;;5.15;81.09;98732.31;5136450;27;41005;-80
2023/02/22 04:40:44;;;;;;;8.27;6.93;;;;;;;5.17;81.09;98727.00;5136190;27;40078;-80
2023/02/22 04:43:12;;;;;;;8.83;7.23;;;;;;;5.17;81.01;98729.63;5119084;27;42823;-80
2023/02/22 04:45:41;;;;;;;7.63;6.90;;;;;;;5.16;81.08;98722.66;5118868;27;41079;-80
2023/02/22 04:48:10;;;;;;;7.33;6.50;;;;;;;5.07;81.46;98707.31;5119201;27;40355;-80
2023/02/22 04:50:38;;;;;;;7.43;6.70;;;;;;;5.14;81.12;98725.34;5136269;27;40945;-80
2023/02/22 04:53:05;;;;;;;6.43;5.83;;;;;;;5.16;81.39;98728.78;5119270;27;41751;-80
2023/02/22 04:55:36;;;;;;;7.90;7.10;;;;;;;5.17;81.44;98720.00;5135659;27;42305;-80
2023/02/22 04:58:04;;;;;;;8.10;6.67;;;;;;;5.17;81.18;98725.25;5154206;27;38891;-80
2023/02/22 05:00:32;;;;;;;7.20;6.47;;;;;;;4.81;81.52;98656.81;5135763;27;41709;-80
2023/02/22 05:03:03;;;;;;;10.33;7.03;;;;;;;5.18;81.50;98716.44;5119683;27;41600;-80
2023/02/22 05:05:30;;;;;;;6.80;6.10;;;;;;;5.19;81.15;98707.66;5118522;27;42374;-79
2023/02/22 05:07:58;;;;;;;6.73;6.13;;;;;;;5.19;81.03;98712.91;5118901;27;39868;-80
2023/02/22 05:10:26;;;;;;;7.30;6.60;;;;;;;5.16;80.96;98713.03;5153155;27;41479;-80
2023/02/22 05:12:56;;;;;;;7.17;5.83;;;;;;;5.20;80.96;98709.31;5135793;27;42505;-80
2023/02/22 05:15:24;;;;;;;7.43;6.67;;;;;;;5.10;81.92;98689.66;5153334;27;42761;-80
2023/02/22 05:17:51;;;;;;;7.50;6.70;;;;;;;5.20;81.77;98709.31;5118802;27;39200;-80
2023/02/22 05:20:26;;;;;;;7.23;6.50;;;;;;;5.17;81.67;98703.38;5118699;27;40645;-80
2023/02/22 05:22:55;;;;;;;7.43;6.67;;;;;;;5.05;81.75;98683.78;5151504;27;42684;-80
2023/02/22 05:25:24;;;;;;;6.57;5.97;;;;;;;5.15;81.84;98705.22;5118524;27;42217;-80
2023/02/22 05:27:52;;;;;;;6.30;5.70;;;;;;;5.07;81.49;98697.66;5136051;27;38994;-80
2023/02/22 05:30:25;;;;;;;6.73;6.07;;;;;;;5.20;81.95;98718.97;5135557;27;42704;-80
2023/02/22 05:32:53;;;;;;;6.43;5.77;;;;;;;5.19;81.59;98712.91;5151209;27;42813;-80
2023/02/22 05:35:22;;;;;;;6.63;6.03;;;;;;;5.20;81.59;98709.31;5135578;27;41121;-80
2023/02/22 05:37:50;;;;;;;6.40;5.80;;;;;;;5.20;81.86;98701.47;5135873;27;40085;-80
2023/02/22 05:40:18;;;;;;;6.47;5.80;;;;;;;5.21;81.92;98697.06;5153013;27;41712;-80
2023/02/22 05:42:46;;;;;;;6.37;5.77;;;;;;;5.12;82.04;98682.56;5135823;27;43333;-80
2023/02/22 05:45:16;;;;;;;7.13;6.43;;;;;;;5.14;81.73;98683.38;5135558;27;43211;-80
2023/02/22 05:47:45;;;;;;;6.63;6.03;;;;;;;5.25;81.84;98696.88;5135663;27;40263;-81
2023/02/22 05:50:14;;;;;;;7.00;5.70;;;;;;;5.27;81.83;98699.44;5152925;27;41683;-80
2023/02/22 05:52:43;;;;;;;6.80;6.20;;;;;;;5.22;82.22;98691.75;5118579;27;41810;-80
2023/02/22 05:55:13;;;;;;;6.17;5.67;;;;;;;5.26;82.07;98701.22;5153748;27;43312;-80
2023/02/22 05:57:41;;;;;;;9.67;7.63;;;;;;;5.25;83.45;98699.50;5135661;27;40092;-80
2023/02/22 06:00:11;;;;;;;9.33;7.87;;;;;;;4.87;82.86;98637.31;5118269;27;40689;-80
2023/02/22 06:02:41;;;;;;;7.53;6.73;;;;;;;5.20;82.54;98698.84;5135763;27;41802;-80
2023/02/22 06:05:11;;;;;;;7.23;6.53;;;;;;;5.23;82.64;98698.72;5153744;27;42563;-80
2023/02/22 06:07:39;;;;;;;7.07;6.37;;;;;;;5.09;82.98;98679.22;5135428;27;39542;-80
2023/02/22 06:10:07;;;;;;;6.40;5.80;;;;;;;5.22;82.57;98702.25;5157258;27;41781;-80
2023/02/22 06:12:35;;;;;;;6.67;6.07;;;;;;;5.05;82.79;98679.38;5157301;27;42475;-80
2023/02/22 06:15:02;;;;;;;9.57;7.87;;;;;;;5.12;82.95;98695.69;5139070;27;42364;-80
2023/02/22 06:17:30;;;;;;;9.23;6.97;;;;;;;5.22;82.69;98710.13;5121748;27;39448;-80
2023/02/22 06:19:58;;;;;;;7.80;7.00;;;;;;;5.22;83.30;98704.88;5138455;27;41636;-81
2023/02/22 06:22:28;;;;;;;6.83;6.20;;;;;;;5.10;83.88;98684.41;5157173;27;42127;-80
2023/02/22 06:24:56;;;;;;;6.03;5.43;;;;;;;5.19;83.48;98701.56;5138549;27;41102;-80
2023/02/22 06:27:24;;;;;;;6.33;5.73;;;;;;;5.21;83.17;98705.78;5138516;27;39095;-80
2023/02/22 06:29:51;;;;;;;5.43;4.93;;;;;;;5.25;83.15;98711.78;5155763;27;41686;-80
2023/02/22 06:32:19;;;;;;;7.17;6.10;;;;;;;5.18;83.12;98694.59;5138191;27;41887;-80
2023/02/22 06:34:47;;;;;;;6.93;6.23;;;;;;;5.19;83.34;98691.91;5156893;27;42193;-81
2023/02/22 06:37:14;;;;;;;7.57;6.40;;;;;;;5.32;83.08;98719.28;5138334;27;38955;-80
2023/02/22 06:39:44;;;;;;;6.90;6.20;;;;;;;5.21;82.87;98703.16;5120892;27;40719;-80
2023/02/22 06:42:11;;;;;;;7.13;6.20;;;;;;;5.34;83.07;98714.84;5156621;27;42812;-80
2023/02/22 06:44:39;;;;;;;5.93;5.33;;;;;;;5.26;83.29;98703.81;5138196;27;41599;-80
2023/02/22 06:47:07;;;;;;;6.97;6.27;;;;;;;5.33;83.18;98718.38;5138552;27;40126;-81
2023/02/22 06:49:35;;;;;;;9.63;6.03;;;;;;;5.36;82.92;98723.50;5138459;27;41640;-80
2023/02/22 06:52:05;;;;;;;7.53;6.70;;;;;;;5.30;83.22;98709.81;5138268;27;42522;-80
2023/02/22 06:54:32;;;;;;;6.57;5.90;;;;;;;5.34;83.32;98700.84;5138121;27;42432;-80
2023/02/22 06:57:02;;;;;;;6.93;6.23;;;;;;;5.49;82.79;98726.44;5137947;27;40968;-80
2023/02/22 06:59:30;;;;;;;6.40;5.80;;;;;;;5.56;83.06;98727.91;5155685;27;41848;-80
2023/02/22 07:01:58;;;;;;;6.63;5.97;;;;;;;5.62;82.88;98729.38;5137642;27;43068;-80
2023/02/22 07:04:25;;;;;;;7.50;5.63;;;;;;;5.65;82.90;98718.75;5138103;27;42261;-80
2023/02/22 07:06:54;;;;;;;11.70;6.63;;;;;;;5.61;82.86;98710.16;5137780;27;38545;-80
2023/02/22 07:09:22;;;;;;;6.23;5.63;;;;;;;5.79;82.56;98734.75;5156280;27;41523;-80
2023/02/22 07:11:50;;;;;;;7.07;5.60;;;;;;;5.77;82.31;98720.81;5137884;27;42030;-80
2023/02/22 07:14:19;;;;;;;7.07;5.93;;;;;;;5.93;82.66;98737.66;5155053;27;42477;-80
2023/02/22 07:16:47;;;;;;;16.53;6.37;;;;;;;5.74;82.04;98694.69;5137338;27;40722;-80
2023/02/22 07:19:15;;;;;;;7.80;5.97;;;;;;;6.01;82.16;98730.25;5120115;27;40345;-80
2023/02/22 07:21:43;;;;;;;6.17;5.57;;;;;;;6.15;82.25;98734.03;5156116;27;42862;-80
2023/02/22 07:24:10;;;;;;;7.07;5.63;;;;;;;6.22;81.87;98738.06;5155968;27;42237;-82
2023/02/22 07:26:40;;;;;;;8.37;5.80;;;;;;;6.28;81.72;98737.78;5137387;27;39151;-80
2023/02/22 07:29:10;;;;;;;6.20;5.60;;;;;;;6.34;81.63;98734.84;5137427;27;40974;-80
2023/02/22 07:31:39;;;;;;;9.07;5.87;;;;;;;6.30;81.36;98720.16;5119568;27;42818;-80
2023/02/22 07:34:07;;;;;;;6.10;5.50;;;;;;;6.44;81.20;98738.75;5155761;27;42289;-80
2023/02/22 07:36:35;;;;;;;18.80;6.20;;;;;;;6.45;81.27;98729.94;5136874;27;41024;-80
2023/02/22 07:39:02;;;;;;;6.73;6.07;;;;;;;6.61;80.86;98741.44;5120373;27;40643;-80
2023/02/22 07:41:30;;;;;;;6.50;5.90;;;;;;;6.71;80.97;98740.03;5155018;27;43701;-80
2023/02/22 07:43:58;;;;;;;12.37;5.57;;;;;;;6.60;80.22;98709.94;5155752;27;43468;-80
2023/02/22 07:46:25;;;;;;;6.20;5.60;;;;;;;6.78;80.12;98733.56;5155580;27;40004;-80
2023/02/22 07:48:55;;;;;;;8.30;5.50;;;;;;;6.93;80.16;98747.75;5119562;27;41942;-81
2023/02/22 07:51:23;;;;;;;8.67;5.70;;;;;;;6.96;79.63;98749.38;5136724;27;41903;-80
2023/02/22 07:53:50;;;;;;;6.87;5.70;;;;;;;7.04;79.77;98749.88;5137296;27;42631;-80
2023/02/22 07:56:18;;;;;;;11.63;6.17;;;;;;;7.06;79.50;98750.63;5137088;27;39284;-80
2023/02/22 07:58:46;;;;;;;12.03;5.83;;;;;;;7.05;79.52;98741.00;5136733;27;41868;-80
2023/02/22 08:01:14;;;;;;;9.33;5.60;;;;;;;7.06;79.71;98742.72;5138435;27;42731;-80
2023/02/22 08:03:42;;;;;;;8.03;5.53;;;;;;;7.21;79.79;98747.22;5153802;27;43366;-79
2023/02/22 08:06:11;;;;;;;7.53;5.13;;;;;;;7.24;79.96;98730.41;5152248;27;40089;-80
2023/02/22 08:08:39;;;;;;;11.83;5.70;;;;;;;7.39;79.65;98734.91;5170588;27;42031;-79
2023/02/22 08:11:07;;;;;;;6.50;5.80;;;;;;;7.64;79.10;98751.16;5172183;27;43001;-79
2023/02/22 08:13:36;;;;;;;9.27;5.97;;;;;;;7.79;78.98;98749.50;5145645;27;41630;-80
2023/02/22 08:16:04;;;;;;;6.43;5.83;;;;;;;7.80;78.21;98735.34;5119630;27;39777;-80
2023/02/22 08:18:32;;;;;;;7.97;5.43;;;;;;;7.95;77.83;98731.91;5136668;27;41625;-80
2023/02/22 08:20:59;;;;;;;6.50;5.80;;;;;;;8.10;77.36;98743.41;5136522;27;42739;-79
2023/02/22 08:23:30;;;;;;;7.73;6.10;;;;;;;8.09;76.84;98744.34;5119166;27;41215;-80
2023/02/22 08:26:05;;;;;;;6.93;6.23;;;;;;;8.21;77.30;98749.81;5152534;27;42219;-80
2023/02/22 08:28:33;;;;;;;18.30;6.47;;;;;;;8.36;76.97;98747.31;5133524;27;42744;-80
2023/02/22 08:31:00;;;;;;;8.07;5.73;;;;;;;8.51;76.67;98747.31;5134981;27;41944;-80
2023/02/22 08:33:28;;;;;;;6.63;5.80;;;;;;;8.67;75.77;98754.34;5119447;27;41745;-80
2023/02/22 08:35:56;;;;;;;6.17;5.57;;;;;;;8.86;75.55;98750.59;5119332;27;38722;-80
2023/02/22 08:38:26;;;;;;;6.83;6.00;;;;;;;8.97;74.93;98758.75;5154952;27;42669;-80
2023/02/22 08:40:56;;;;;;;7.40;6.67;;;;;;;8.94;74.59;98724.59;5135837;27;43274;-80
2023/02/22 08:43:24;;;;;;;7.60;6.80;;;;;;;9.43;74.73;98760.47;5118901;27;42345;-80
2023/02/22 08:45:52;;;;;;;6.97;6.27;;;;;;;9.70;74.41;98758.84;5154517;27;40458;-80
2023/02/22 08:48:20;;;;;;;7.70;6.90;;;;;;;9.85;74.26;98742.03;5135978;27;40677;-82
2023/02/22 08:50:50;;;;;;;8.73;7.40;;;;;;;10.08;73.46;98743.25;5136861;27;20236;-79
2023/02/22 08:53:18;;;;;;;7.67;6.80;;;;;;;10.30;72.76;98754.22;5136285;27;43023;-80
2023/02/22 08:55:46;;;;;;;7.17;6.23;;;;;;;10.49;72.33;98753.09;5154117;27;40257;-80
2023/02/22 08:58:16;;;;;;;8.40;7.60;;;;;;;10.60;70.93;98756.75;5136152;27;41695;-81
2023/02/22 09:00:44;;;;;;;11.80;7.43;;;;;;;10.60;70.81;98740.00;5135700;27;43967;-80
2023/02/22 09:03:14;;;;;;;9.60;7.33;;;;;;;10.73;70.26;98740.91;5136567;27;42253;-80
2023/02/22 09:05:42;;;;;;;7.37;6.67;;;;;;;10.90;69.92;98748.59;5152987;27;40378;-80
2023/02/22 09:08:10;;;;;;;9.07;8.13;;;;;;;11.11;67.34;98773.69;5118917;27;40841;-80
2023/02/22 09:10:39;;;;;;;8.73;7.50;;;;;;;11.16;67.83;98760.13;5135469;27;42181;-80
2023/02/22 09:13:07;;;;;;;8.17;7.33;;;;;;;11.34;68.21;98763.38;5153576;27;42392;-80
2023/02/22 09:15:36;;;;;;;7.60;6.77;;;;;;;11.53;68.70;98754.06;5153157;27;41920;-80
2023/02/22 09:18:07;;;;;;;8.60;7.70;;;;;;;11.72;68.23;98758.97;5135586;27;43117;-80
2023/02/22 09:20:36;;;;;;;8.47;7.57;;;;;;;12.00;67.70;98735.81;5135760;27;43887;-80
2023/02/22 09:23:04;;;;;;;10.33;9.23;;;;;;;12.33;67.12;98759.16;5118697;27;42304;-80
2023/02/22 09:25:33;;;;;;;12.17;9.83;;;;;;;12.44;66.41;98752.13;5135379;27;40890;-80
2023/02/22 09:28:01;;;;;;;13.03;9.70;;;;;;;12.65;65.94;98754.19;5135804;27;41188;-81
2023/02/22 09:30:31;;;;;;;13.10;9.97;;;;;;;12.63;64.17;98764.91;5154025;27;42774;-80
2023/02/22 09:33:02;;;;;;;13.80;9.73;;;;;;;12.55;64.14;98761.97;5135627;27;42105;-80
2023/02/22 09:35:30;;;;;;;10.13;9.13;;;;;;;12.49;64.00;98755.28;5133693;27;39759;-80
2023/02/22 09:38:00;;;;;;;10.57;8.63;;;;;;;12.62;64.32;98759.72;5135169;27;41764;-81
2023/02/22 09:40:30;;;;;;;10.13;9.13;;;;;;;12.82;64.26;98754.66;5134833;27;44192;-80
2023/02/22 09:43:24;;;;;;;10.37;8.87;;;;;;;13.08;64.04;98762.53;5120142;27;42959;-80
2023/02/22 09:46:10;;;;;;;8.97;8.07;;;;;;;13.34;63.18;98766.78;5155951;27;39838;-80
2023/02/22 09:48:51;;;;;;;9.60;8.60;;;;;;;13.62;62.31;98763.72;5122180;27;42758;-80
2023/02/22 09:51:26;;;;;;;11.27;9.50;;;;;;;13.61;61.84;98753.19;5139315;27;41878;-81
2023/02/22 09:53:58;;;;;;;9.40;8.50;;;;;;;13.65;61.27;98752.84;5121446;27;41521;-80
2023/02/22 09:56:27;;;;;;;9.37;8.40;;;;;;;13.81;61.27;98757.84;5156582;27;40313;-80
2023/02/22 09:58:59;;;;;;;10.43;9.33;;;;;;;13.80;61.24;98745.50;5121835;27;41894;-80
2023/02/22 10:01:32;;;;;;;10.80;9.70;;;;;;;13.81;59.50;98749.84;5156658;27;43363;-80
2023/02/22 10:04:06;;;;;;;11.60;10.07;;;;;;;13.84;59.62;98768.25;5135564;27;42582;-80
2023/02/22 10:06:35;;;;;;;10.63;8.87;;;;;;;13.90;59.99;98757.13;5138430;27;41160;-80
2023/02/22 10:09:07;;;;;;;10.20;9.20;;;;;;;14.26;59.75;98744.53;5121284;27;40597;-80
2023/02/22 10:11:49;;;;;;;11.47;9.23;;;;;;;14.98;59.20;98755.59;5156195;27;43568;-81
2023/02/22 10:14:34;;;;;;;10.87;9.70;;;;;;;16.11;57.16;98769.13;5138314;27;42212;-80
2023/02/22 10:17:11;;;;;;;9.73;8.37;;;;;;;17.34;53.93;98775.97;5156867;27;39959;-80
2023/02/22 10:19:51;;;;;;;9.47;8.57;;;;;;;18.40;51.03;98793.75;5138765;27;41015;-81
2023/02/22 10:22:42;;;;;;;10.20;9.20;;;;;;;18.89;49.88;98776.47;5138215;27;41995;-80
2023/02/22 10:25:16;;;;;;;9.63;8.67;;;;;;;19.84;48.20;98794.72;5120602;27;41312;-81
2023/02/22 10:27:52;;;;;;;7.93;7.13;;;;;;;20.82;45.90;98774.63;5138758;27;39172;-81
2023/02/22 10:30:23;;;;;;;7.70;6.97;;;;;;;21.99;43.41;98802.34;5138278;27;41371;-81
2023/02/22 10:32:58;;;;;;;8.80;8.00;;;;;;;22.40;41.77;98759.94;5138138;27;42982;-81
2023/02/22 10:35:30;;;;;;;7.27;6.67;;;;;;;23.06;41.99;98791.94;5120704;27;41251;-81
2023/02/22 10:38:04;;;;;;;8.00;7.20;;;;;;;23.28;40.58;98806.50;5138637;27;40884;-80
2023/02/22 10:40:32;;;;;;;7.93;7.23;;;;;;;23.67;40.31;98795.63;5120579;27;40755;-81
2023/02/22 10:43:04;;;;;;;8.50;7.43;;;;;;;23.88;40.04;98781.44;5155381;27;42631;-81
2023/02/22 10:45:34;;;;;;;7.80;7.20;;;;;;;24.24;38.42;98784.34;5154416;27;42346;-81
2023/02/22 10:48:10;;;;;;;7.83;7.10;;;;;;;25.21;37.57;98802.19;5153711;27;39863;-81
2023/02/22 10:50:42;;;;;;;7.30;6.70;;;;;;;26.10;35.81;98806.22;5138337;27;42269;-82
2023/02/22 10:53:10;;;;;;;7.27;6.67;;;;;;;26.93;34.57;98796.41;5121353;27;41993;-81
2023/02/22 10:56:06;;;;;;;8.20;7.40;;;;;;;27.98;33.08;98806.75;5136571;27;41310;-81
2023/02/22 10:58:41;;;;;;;7.63;7.03;;;;;;;28.93;32.47;98809.00;5137939;27;41183;-82
2023/02/22 11:01:20;;;;;;;7.10;6.50;;;;;;;29.98;31.16;98806.84;5120682;27;41330;-82
2023/02/22 11:03:58;;;;;;;7.30;6.70;;;;;;;30.72;29.62;98775.91;5134607;27;42927;-82
2023/02/22 11:06:28;;;;;;;7.68;6.97;;;;;;;31.56;28.39;98809.81;5137065;27;43396;-82
2023/02/22 11:09:10;;;;;;;6.68;6.07;;;;;;;32.00;28.54;98790.25;5137677;27;39265;-82
2023/02/22 11:11:40;;;;;;;6.85;6.25;;;;;;;32.78;27.02;98814.63;5120181;27;40716;-82
2023/02/22 11:14:09;;;;;;;6.75;6.10;;;;;;;33.24;27.03;98790.13;5119993;27;42401;-81
2023/02/22 11:16:39;;;;;;;5.82;5.43;;;;;;;33.68;26.32;98785.75;5136937;27;41276;-82
2023/02/22 11:19:16;;;;;;;6.90;6.30;;;;;;;34.27;25.36;98781.59;5137295;27;39950;-82
2023/02/22 11:21:46;;;;;;;6.25;5.75;;;;;;;34.82;24.78;98800.06;5136852;27;41677;-81
2023/02/22 11:24:16;;;;;;;6.25;5.72;;;;;;;34.46;24.37;98794.03;5136860;27;43010;-82
2023/02/22 11:26:47;;;;;;;5.82;5.35;;;;;;;34.67;25.08;98769.56;5136863;27;41431;-82
2023/02/22 11:29:22;;;;;;;5.18;4.68;;;;;;;35.48;24.17;98756.88;5120351;27;40359;-81
2023/02/22 11:31:50;;;;;;;5.07;4.68;;;;;;;35.73;23.47;98776.41;5119739;27;40765;-82
2023/02/22 11:34:32;;;;;;;6.13;5.60;;;;;;;35.29;22.57;98770.16;5137105;27;41903;-82
2023/02/22 11:40:10;;;;;;;6.30;5.80;;;;;;;32.89;25.70;98743.56;5109661;28;20578;-82
2023/02/22 11:42:39;;;;;;;6.05;5.55;;;;;;;32.23;25.57;98737.38;5091925;28;38878;-83
2023/02/22 11:45:14;;;;;;;6.38;5.70;;;;;;;32.65;25.84;98743.53;5092015;28;40758;-82
2023/02/22 11:47:52;;;;;;;5.65;5.10;;;;;;;33.33;24.64;98744.72;5125936;27;44156;-82
2023/02/22 11:50:33;;;;;;;5.38;4.97;;;;;;;33.66;23.89;98747.53;5108548;28;42401;-81
2023/02/22 11:53:22;;;;;;;6.20;5.60;;;;;;;34.01;23.60;98743.75;5108421;28;38951;-82
2023/02/22 11:56:04;;;;;;;6.50;5.90;;;;;;;34.44;22.92;98730.19;5091593;28;40783;-81
2023/02/22 11:58:42;;;;;;;5.80;5.30;;;;;;;34.88;22.87;98725.56;5108204;28;41587;-82